createdAt,value
2022-11-05T00:01:45.468Z,100219.50
2022-11-05T00:04:31.203Z,100218.34
2022-11-05T00:07:18.589Z,100230.88
2022-11-05T00:09:45.957Z,100236.75
2022-11-05T00:12:32.445Z,100239.56
2022-11-05T00:15:17.233Z,100233.94
2022-11-05T00:17:43.535Z,100239.97
2022-11-05T00:20:13.584Z,100242.63
2022-11-05T00:22:58.377Z,100235.19
2022-11-05T00:25:24.542Z,100237.88
2022-11-05T00:27:53.053Z,100255.28
2022-11-05T00:30:25.938Z,100251.47
2022-11-05T00:32:53.152Z,100260.31
2022-11-05T00:35:21.536Z,100261.16
2022-11-05T00:37:50.328Z,100260.31
2022-11-05T00:40:16.948Z,100267.97
2022-11-05T00:43:02.036Z,100264.69
2022-11-05T00:45:29.808Z,100265.50
2022-11-05T00:48:14.158Z,100263.31
2022-11-05T00:50:40.481Z,100265.66
2022-11-05T00:53:07.819Z,100265.34
2022-11-05T00:55:39.629Z,100273.22
2022-11-05T00:58:08.572Z,100272.22
2022-11-05T01:00:37.564Z,100266.34
2022-11-05T01:03:10.086Z,100275.19
2022-11-05T01:05:48.006Z,100275.78
2022-11-05T01:08:16.415Z,100286.78
2022-11-05T01:10:48.238Z,100292.44
2022-11-05T01:13:17.647Z,100292.75
2022-11-05T01:15:43.971Z,100302.03
2022-11-05T01:18:10.432Z,100291.78
2022-11-05T01:20:36.562Z,100299.25
2022-11-05T01:23:02.764Z,100299.69
2022-11-05T01:25:28.921Z,100300.53
2022-11-05T01:27:55.204Z,100305.72
2022-11-05T01:30:21.469Z,100305.88
2022-11-05T01:32:47.575Z,100314.19
2022-11-05T01:35:15.960Z,100319.91
2022-11-05T01:37:42.458Z,100320.22
2022-11-05T01:40:12.233Z,100334.09
2022-11-05T01:42:38.363Z,100327.78
2022-11-05T01:45:14.106Z,100322.44
2022-11-05T01:47:48.436Z,100331.97
2022-11-05T01:50:26.765Z,100327.63
2022-11-05T01:52:59.349Z,100334.09
2022-11-05T01:55:28.243Z,100336.38
2022-11-05T01:57:58.160Z,100342.53
2022-11-05T02:00:24.809Z,100347.06
2022-11-05T02:02:51.025Z,100342.53
2022-11-05T02:05:17.636Z,100336.66
2022-11-05T02:07:45.491Z,100333.84
2022-11-05T02:10:14.232Z,100344.66
2022-11-05T02:12:43.613Z,100343.00
2022-11-05T02:15:12.470Z,100342.00
2022-11-05T02:17:51.423Z,100346.78
2022-11-05T02:20:35.387Z,100354.09
2022-11-05T02:23:39.006Z,100357.78
2022-11-05T02:26:26.674Z,100363.94
2022-11-05T02:29:17.808Z,100360.59
2022-11-05T02:31:57.810Z,100371.25
2022-11-05T02:34:30.933Z,100375.63
2022-11-05T02:37:10.192Z,100373.94
2022-11-05T02:39:59.577Z,100376.75
2022-11-05T02:43:05.469Z,100375.91
2022-11-05T02:45:46.304Z,100377.88
2022-11-05T02:48:38.925Z,100386.16
2022-11-05T02:51:14.431Z,100386.03
2022-11-05T02:54:18.964Z,100385.34
2022-11-05T02:56:48.243Z,100397.72
2022-11-05T02:59:14.378Z,100397.44
2022-11-05T03:01:43.232Z,100396.75
2022-11-05T03:04:11.927Z,100392.09
2022-11-05T03:06:41.069Z,100397.97
2022-11-05T03:09:24.882Z,100399.13
2022-11-05T03:12:26.741Z,100410.63
2022-11-05T03:14:57.988Z,100411.31
2022-11-05T03:17:55.490Z,100418.78
2022-11-05T03:20:40.336Z,100427.38
2022-11-05T03:23:23.390Z,100426.41
2022-11-05T03:26:01.954Z,100424.56
2022-11-05T03:28:32.413Z,100431.00
2022-11-05T03:30:59.338Z,100435.94
2022-11-05T03:33:29.590Z,100433.41
2022-11-05T03:36:00.477Z,100432.88
2022-11-05T03:38:34.122Z,100432.31
2022-11-05T03:41:07.460Z,100441.72
2022-11-05T03:43:42.806Z,100447.50
2022-11-05T03:46:27.371Z,100456.91
2022-11-05T03:48:56.887Z,100457.34
2022-11-05T03:51:36.409Z,100462.09
2022-11-05T03:54:04.326Z,100450.75
2022-11-05T03:56:36.308Z,100452.00
2022-11-05T03:59:04.375Z,100455.06
2022-11-05T04:01:31.446Z,100454.69
2022-11-05T04:03:57.680Z,100458.59
2022-11-05T04:06:42.411Z,100461.81
2022-11-05T04:09:27.999Z,100459.13
2022-11-05T04:12:13.022Z,100461.78
2022-11-05T04:14:39.716Z,100472.19
2022-11-05T04:17:11.548Z,100473.88
2022-11-05T04:19:58.320Z,100479.72
2022-11-05T04:22:44.415Z,100480.72
2022-11-05T04:25:11.549Z,100486.84
2022-11-05T04:27:37.674Z,100496.09
2022-11-05T04:30:20.068Z,100491.34
2022-11-05T04:33:00.832Z,100494.84
2022-11-05T04:35:29.156Z,100496.78
2022-11-05T04:37:55.329Z,100487.53
2022-11-05T04:40:21.854Z,100504.63
2022-11-05T04:42:47.983Z,100502.50
2022-11-05T04:45:14.111Z,100506.97
2022-11-05T04:47:40.228Z,100503.31
2022-11-05T04:50:06.433Z,100499.22
2022-11-05T04:52:32.543Z,100501.91
2022-11-05T04:54:58.671Z,100506.75
2022-11-05T04:57:24.774Z,100515.47
2022-11-05T04:59:52.082Z,100517.41
2022-11-05T05:02:18.255Z,100510.97
2022-11-05T05:04:44.980Z,100517.25
2022-11-05T05:07:11.098Z,100520.34
2022-11-05T05:09:37.211Z,100516.41
2022-11-05T05:12:03.420Z,100527.19
2022-11-05T05:14:29.533Z,100520.88
2022-11-05T05:16:55.651Z,100516.94
2022-11-05T05:19:21.783Z,100520.44
2022-11-05T05:21:47.888Z,100520.16
2022-11-05T05:24:21.182Z,100523.53
2022-11-05T05:26:51.521Z,100527.44
2022-11-05T05:29:18.163Z,100526.88
2022-11-05T05:31:44.985Z,100529.38
2022-11-05T05:34:12.956Z,100540.31
2022-11-05T05:36:39.092Z,100548.72
2022-11-05T05:39:11.063Z,100541.44
2022-11-05T05:41:37.322Z,100545.94
2022-11-05T05:44:05.088Z,100550.28
2022-11-05T05:46:31.199Z,100562.75
2022-11-05T05:48:57.359Z,100567.22
2022-11-05T05:51:23.452Z,100573.25
2022-11-05T05:53:50.105Z,100583.19
2022-11-05T05:56:19.334Z,100577.03
2022-11-05T05:58:45.643Z,100585.03
2022-11-05T06:01:18.911Z,100583.31
2022-11-05T06:03:45.649Z,100601.94
2022-11-05T06:06:13.494Z,100606.44
2022-11-05T06:08:40.028Z,100599.16
2022-11-05T06:11:07.124Z,100615.97
2022-11-05T06:13:33.940Z,100621.03
2022-11-05T06:16:05.144Z,100624.41
2022-11-05T06:18:31.903Z,100620.31
2022-11-05T06:21:03.006Z,100624.81
2022-11-05T06:23:33.608Z,100622.53
2022-11-05T06:26:05.420Z,100625.19
2022-11-05T06:28:31.748Z,100624.47
2022-11-05T06:30:58.099Z,100634.16
2022-11-05T06:33:24.399Z,100634.16
2022-11-05T06:35:50.584Z,100635.47
2022-11-05T06:38:16.737Z,100648.78
2022-11-05T06:40:42.855Z,100647.66
2022-11-05T06:43:09.322Z,100661.22
2022-11-05T06:45:35.621Z,100658.53
2022-11-05T06:48:01.973Z,100663.38
2022-11-05T06:50:28.597Z,100671.09
2022-11-05T06:53:02.812Z,100677.25
2022-11-05T06:55:30.523Z,100681.38
2022-11-05T06:57:57.328Z,100683.16
2022-11-05T07:00:30.945Z,100681.09
2022-11-05T07:03:04.405Z,100684.75
2022-11-05T07:05:31.451Z,100686.41
2022-11-05T07:07:57.569Z,100686.41
2022-11-05T07:10:23.759Z,100686.03
2022-11-05T07:12:49.880Z,100690.25
2022-11-05T07:15:16.038Z,100692.81
2022-11-05T07:17:42.172Z,100693.50
2022-11-05T07:20:09.431Z,100697.84
2022-11-05T07:22:35.896Z,100699.91
2022-11-05T07:25:02.198Z,100701.22
2022-11-05T07:27:28.327Z,100693.22
2022-11-05T07:29:54.436Z,100702.34
2022-11-05T07:32:20.561Z,100700.25
2022-11-05T07:34:46.724Z,100699.41
2022-11-05T07:37:12.921Z,100700.69
2022-11-05T07:39:39.032Z,100704.59
2022-11-05T07:42:05.152Z,100709.56
2022-11-05T07:44:33.181Z,100715.72
2022-11-05T07:46:59.316Z,100715.31
2022-11-05T07:49:26.126Z,100723.47
2022-11-05T07:51:52.249Z,100715.13
2022-11-05T07:54:18.347Z,100724.22
2022-11-05T07:56:47.062Z,100723.81
2022-11-05T07:59:13.176Z,100728.44
2022-11-05T08:01:39.502Z,100720.69
2022-11-05T08:04:05.722Z,100725.47
2022-11-05T08:06:31.900Z,100728.25
2022-11-05T08:08:58.032Z,100731.63
2022-11-05T08:11:24.135Z,100742.28
2022-11-05T08:13:50.269Z,100750.16
2022-11-05T08:16:16.510Z,100753.13
2022-11-05T08:18:42.629Z,100751.56
2022-11-05T08:21:09.599Z,100754.94
2022-11-05T08:23:35.740Z,100760.28
2022-11-05T08:26:03.842Z,100760.75
2022-11-05T08:28:29.949Z,100760.34
2022-11-05T08:30:57.024Z,100762.59
2022-11-05T08:33:25.049Z,100760.94
2022-11-05T08:35:51.148Z,100760.66
2022-11-05T08:38:19.076Z,100771.78
2022-11-05T08:40:52.809Z,100760.72
2022-11-05T08:43:18.933Z,100766.63
2022-11-05T08:45:45.150Z,100765.75
2022-11-05T08:48:16.530Z,100762.66
2022-11-05T08:50:43.961Z,100769.28
2022-11-05T08:53:10.967Z,100768.50
2022-11-05T08:55:38.513Z,100774.31
2022-11-05T08:58:12.599Z,100777.03
2022-11-05T09:00:40.075Z,100782.69
2022-11-05T09:03:08.182Z,100788.44
2022-11-05T09:05:39.261Z,100786.84
2022-11-05T09:08:10.108Z,100794.25
2022-11-05T09:10:37.162Z,100796.91
2022-11-05T09:13:04.481Z,100800.28
2022-11-05T09:15:31.441Z,100792.16
2022-11-05T09:17:57.780Z,100805.28
2022-11-05T09:20:24.161Z,100797.13
2022-11-05T09:22:51.237Z,100808.84
2022-11-05T09:25:17.590Z,100811.22
2022-11-05T09:27:44.279Z,100816.78
2022-11-05T09:30:11.726Z,100816.38
2022-11-05T09:32:38.191Z,100817.34
2022-11-05T09:35:05.302Z,100824.50
2022-11-05T09:37:31.491Z,100825.75
2022-11-05T09:39:57.650Z,100819.78
2022-11-05T09:42:31.698Z,100822.75
2022-11-05T09:45:05.161Z,100826.09
2022-11-05T09:47:36.259Z,100821.00
2022-11-05T09:50:09.124Z,100823.78
2022-11-05T09:52:35.309Z,100830.22
2022-11-05T09:55:04.520Z,100835.44
2022-11-05T09:57:44.056Z,100834.72
2022-11-05T10:00:18.248Z,100835.72
2022-11-05T10:02:49.831Z,100825.50
2022-11-05T10:05:17.060Z,100822.72
2022-11-05T10:07:47.627Z,100829.59
2022-11-05T10:10:37.798Z,100843.78
2022-11-05T10:13:29.722Z,100851.53
2022-11-05T10:16:07.305Z,100855.47
2022-11-05T10:18:37.496Z,100847.47
2022-11-05T10:21:04.482Z,100848.19
2022-11-05T10:23:30.618Z,100852.75
2022-11-05T10:26:07.781Z,100852.59
2022-11-05T10:28:35.289Z,100856.28
2022-11-05T10:31:08.273Z,100859.94
2022-11-05T10:33:41.264Z,100857.72
2022-11-05T10:36:15.273Z,100863.63
2022-11-05T10:38:41.399Z,100869.66
2022-11-05T10:41:26.275Z,100869.25
2022-11-05T10:44:02.327Z,100873.44
2022-11-05T10:47:13.028Z,100866.88
2022-11-05T10:50:00.259Z,100871.53
2022-11-05T10:52:33.063Z,100867.16
2022-11-05T10:55:02.408Z,100871.94
2022-11-05T10:57:38.005Z,100874.34
2022-11-05T11:00:16.160Z,100869.38
2022-11-05T11:02:47.171Z,100879.94
2022-11-05T11:05:29.838Z,100876.28
2022-11-05T11:08:00.963Z,100867.25
2022-11-05T11:10:29.111Z,100875.44
2022-11-05T11:12:56.957Z,100872.44
2022-11-05T11:15:29.686Z,100874.97
2022-11-05T11:17:56.643Z,100869.72
2022-11-05T11:20:31.561Z,100871.09
2022-11-05T11:23:15.855Z,100877.16
2022-11-05T11:25:50.857Z,100882.06
2022-11-05T11:28:31.054Z,100879.66
2022-11-05T11:31:11.841Z,100882.69
2022-11-05T11:33:40.452Z,100881.09
2022-11-05T11:36:09.100Z,100879.56
2022-11-05T11:38:37.115Z,100884.38
2022-11-05T11:41:27.129Z,100879.03
2022-11-05T11:44:02.002Z,100878.75
2022-11-05T11:46:32.539Z,100880.28
2022-11-05T11:48:59.069Z,100880.97
2022-11-05T11:51:49.868Z,100877.16
2022-11-05T11:54:21.322Z,100882.22
2022-11-05T11:56:48.778Z,100866.56
2022-11-05T12:00:06.628Z,100868.25
2022-11-05T12:02:27.288Z,100878.13
2022-11-05T12:05:14.567Z,100878.97
2022-11-05T12:07:51.503Z,100875.59
2022-11-05T12:11:03.231Z,100876.28
2022-11-05T12:14:15.333Z,100875.94
2022-11-05T12:17:08.724Z,100874.78
2022-11-05T12:20:10.123Z,100876.50
2022-11-05T12:23:07.266Z,100874.66
2022-11-05T12:26:00.796Z,100868.69
2022-11-05T12:29:04.488Z,100871.84
2022-11-05T12:31:43.079Z,100884.50
2022-11-05T12:34:20.980Z,100874.53
2022-11-05T12:37:08.046Z,100882.66
2022-11-05T12:40:11.195Z,100887.94
2022-11-05T12:42:58.732Z,100890.75
2022-11-05T12:45:45.108Z,100883.03
2022-11-05T12:48:34.193Z,100887.69
2022-11-05T12:51:37.862Z,100883.09
2022-11-05T12:54:18.105Z,100885.81
2022-11-05T12:57:01.596Z,100878.22
2022-11-05T12:59:37.810Z,100893.47
2022-11-05T13:02:22.802Z,100883.56
2022-11-05T13:05:21.703Z,100895.91
2022-11-05T13:08:03.362Z,100897.66
2022-11-05T13:10:43.920Z,100893.16
2022-11-05T13:13:33.830Z,100891.47
2022-11-05T13:16:24.721Z,100899.09
2022-11-05T13:18:54.833Z,100891.06
2022-11-05T13:21:25.231Z,100888.38
2022-11-05T13:24:12.660Z,100891.75
2022-11-05T13:27:01.693Z,100895.13
2022-11-05T13:29:56.051Z,100905.59
2022-11-05T13:32:31.327Z,100906.28
2022-11-05T13:34:59.406Z,100905.31
2022-11-05T13:37:55.110Z,100905.16
2022-11-05T13:40:28.232Z,100917.84
2022-11-05T13:43:19.083Z,100913.72
2022-11-05T13:46:30.107Z,100921.03
2022-11-05T13:49:16.601Z,100920.44
2022-11-05T13:51:49.534Z,100930.31
2022-11-05T13:54:37.109Z,100926.78
2022-11-05T13:57:26.456Z,100923.84
2022-11-05T14:00:03.921Z,100933.19
2022-11-05T14:02:52.618Z,100926.44
2022-11-05T14:05:27.600Z,100922.38
2022-11-05T14:07:54.544Z,100928.13
2022-11-05T14:10:35.401Z,100929.44
2022-11-05T14:13:19.139Z,100926.84
2022-11-05T14:16:04.499Z,100932.69
2022-11-05T14:19:14.920Z,100937.75
2022-11-05T14:21:52.492Z,100930.56
2022-11-05T14:24:21.201Z,100941.16
2022-11-05T14:27:02.384Z,100939.09
2022-11-05T14:29:43.560Z,100933.59
2022-11-05T14:32:18.951Z,100942.66
2022-11-05T14:34:47.963Z,100936.91
2022-11-05T14:37:22.301Z,100938.91
2022-11-05T14:39:48.760Z,100934.56
2022-11-05T14:42:14.828Z,100939.53
2022-11-05T14:45:02.081Z,100940.78
2022-11-05T14:47:33.506Z,100947.44
2022-11-05T14:50:06.944Z,100955.66
2022-11-05T14:52:33.443Z,100961.84
2022-11-05T14:54:59.730Z,100961.16
2022-11-05T14:57:51.981Z,100965.09
2022-11-05T15:00:31.277Z,100963.81
2022-11-05T15:02:58.405Z,100972.66
2022-11-05T15:06:20.151Z,100972.34
2022-11-05T15:08:49.007Z,100974.44
2022-11-05T15:11:18.224Z,100971.41
2022-11-05T15:13:53.289Z,100979.38
2022-11-05T15:16:24.921Z,100985.06
2022-11-05T15:18:52.597Z,100982.34
2022-11-05T15:21:20.631Z,100994.94
2022-11-05T15:23:48.857Z,100983.94
2022-11-05T15:26:23.567Z,100983.03
2022-11-05T15:28:51.810Z,100982.84
2022-11-05T15:31:24.424Z,100988.94
2022-11-05T15:33:50.537Z,100985.63
2022-11-05T15:36:29.393Z,100992.00
2022-11-05T15:39:28.058Z,100981.75
2022-11-05T15:41:42.943Z,100994.66
2022-11-05T15:44:24.030Z,100988.63
2022-11-05T15:47:22.786Z,100982.97
2022-11-05T15:49:53.389Z,100983.97
2022-11-05T15:52:22.653Z,100991.03
2022-11-05T15:55:17.325Z,100990.19
2022-11-05T15:57:59.330Z,100994.41
2022-11-05T16:00:29.228Z,100990.91
2022-11-05T16:03:18.227Z,100993.53
2022-11-05T16:05:47.615Z,100991.84
2022-11-05T16:08:20.265Z,100993.28
2022-11-05T16:10:49.838Z,100996.78
2022-11-05T16:13:36.765Z,100991.28
2022-11-05T16:48:20.996Z,101034.19
2022-11-05T16:50:47.174Z,101032.97
2022-11-05T16:53:13.610Z,101042.22
2022-11-05T16:55:42.608Z,101041.78
2022-11-05T16:58:24.269Z,101041.03
2022-11-05T17:00:52.575Z,101038.63
2022-11-05T17:03:18.892Z,101044.13
2022-11-05T17:05:45.158Z,101049.78
2022-11-05T17:08:11.677Z,101057.09
2022-11-05T17:10:38.058Z,101054.66
2022-11-05T17:13:04.179Z,101064.75
2022-11-05T17:15:35.600Z,101066.78
2022-11-05T17:18:03.385Z,101068.03
2022-11-05T17:20:36.745Z,101068.56
2022-11-05T17:23:06.450Z,101063.59
2022-11-05T17:25:32.772Z,101073.66
2022-11-05T17:27:59.069Z,101066.88
2022-11-05T17:30:25.455Z,101066.13
2022-11-05T17:32:51.871Z,101080.44
2022-11-05T17:35:18.465Z,101074.69
2022-11-05T17:37:44.589Z,101074.78
2022-11-05T17:40:17.892Z,101080.41
2022-11-05T17:42:44.325Z,101080.75
2022-11-05T17:45:12.008Z,101080.09
2022-11-05T17:47:38.577Z,101083.78
2022-11-05T17:50:05.817Z,101090.13
2022-11-05T17:52:31.990Z,101089.63
2022-11-05T17:54:58.257Z,101092.44
2022-11-05T17:57:24.387Z,101092.88
2022-11-05T17:59:50.510Z,101099.31
2022-11-05T18:02:16.701Z,101107.47
2022-11-05T18:04:44.147Z,101112.66
2022-11-05T18:07:10.610Z,101115.50
2022-11-05T18:09:37.686Z,101119.97
2022-11-05T18:12:04.468Z,101109.53
2022-11-05T18:14:30.578Z,101108.59
2022-11-05T18:17:00.259Z,101114.00
2022-11-05T18:19:27.778Z,101113.91
2022-11-05T18:21:55.320Z,101112.75
2022-11-05T18:24:22.620Z,101114.47
2022-11-05T18:26:49.704Z,101120.53
2022-11-05T18:29:15.842Z,101110.66
2022-11-05T18:31:41.985Z,101114.91
2022-11-05T18:34:10.440Z,101119.16
2022-11-05T18:36:36.645Z,101116.41
2022-11-05T18:39:04.467Z,101117.25
2022-11-05T18:41:31.486Z,101112.06
2022-11-05T18:44:02.063Z,101115.75
2022-11-05T18:46:56.502Z,101112.44
2022-11-05T18:49:15.866Z,101110.84
2022-11-05T18:51:42.218Z,101105.97
2022-11-05T18:54:08.949Z,101101.81
2022-11-05T18:56:35.815Z,101103.06
2022-11-05T18:59:22.367Z,101105.81
2022-11-05T19:01:48.639Z,101098.16
2022-11-05T19:04:14.901Z,101109.91
2022-11-05T19:06:41.412Z,101105.63
2022-11-05T19:09:10.023Z,101107.53
2022-11-05T19:11:36.172Z,101105.19
2022-11-05T19:14:02.451Z,101110.81
2022-11-05T19:16:30.222Z,101117.22
2022-11-05T19:19:01.791Z,101109.56
2022-11-05T19:21:28.473Z,101112.59
2022-11-05T19:23:57.347Z,101110.16
2022-11-05T19:26:28.667Z,101123.69
2022-11-05T19:28:57.500Z,101122.94
2022-11-05T19:31:23.784Z,101123.00
2022-11-05T19:33:51.375Z,101129.44
2022-11-05T19:36:20.709Z,101126.06
2022-11-05T19:38:49.595Z,101127.84
2022-11-05T19:41:18.420Z,101132.47
2022-11-05T19:43:45.116Z,101141.34
2022-11-05T19:46:16.040Z,101137.19
2022-11-05T19:48:43.103Z,101135.69
2022-11-05T19:51:26.750Z,101146.38
2022-11-05T19:53:53.441Z,101140.41
2022-11-05T19:56:25.250Z,101141.66
2022-11-05T19:58:53.121Z,101139.28
2022-11-05T20:01:20.755Z,101135.88
2022-11-05T20:03:47.757Z,101135.88
2022-11-05T20:06:17.283Z,101132.47
2022-11-05T20:09:07.041Z,101135.19
2022-11-05T20:11:30.962Z,101137.19
2022-11-05T20:13:57.547Z,101137.28
2022-11-05T20:16:29.277Z,101132.25
2022-11-05T20:18:57.308Z,101140.28
2022-11-05T20:21:23.447Z,101141.53
2022-11-05T20:23:49.639Z,101137.34
2022-11-05T20:26:16.320Z,101134.81
2022-11-05T20:28:43.901Z,101143.66
2022-11-05T20:31:12.920Z,101142.06
2022-11-05T20:33:40.822Z,101147.53
2022-11-05T20:36:09.358Z,101152.91
2022-11-05T20:38:35.552Z,101148.66
2022-11-05T20:41:09.537Z,101153.19
2022-11-05T20:43:36.558Z,101153.25
2022-11-05T20:46:03.714Z,101150.81
2022-11-05T20:48:34.630Z,101149.94
2022-11-05T20:51:09.171Z,101155.34
2022-11-05T20:53:36.453Z,101153.63
2022-11-05T20:56:07.624Z,101160.88
2022-11-05T20:58:34.134Z,101169.09
2022-11-05T21:01:00.346Z,101158.78
2022-11-05T21:03:27.308Z,101165.16
2022-11-05T21:05:56.456Z,101169.63
2022-11-05T21:08:22.645Z,101172.44
2022-11-05T21:10:51.419Z,101177.91
2022-11-05T21:13:17.812Z,101180.63
2022-11-05T21:15:55.353Z,101176.38
2022-11-05T21:18:23.837Z,101178.41
2022-11-05T21:20:50.635Z,101175.78
2022-11-05T21:23:17.404Z,101171.44
2022-11-05T21:25:44.368Z,101170.41
2022-11-05T21:28:12.144Z,101169.56
2022-11-05T21:30:45.601Z,101175.84
2022-11-05T21:33:13.176Z,101179.53
2022-11-05T21:35:41.254Z,101180.66
2022-11-05T21:38:07.705Z,101178.09
2022-11-05T21:40:33.897Z,101177.41
2022-11-05T21:43:00.032Z,101186.44
2022-11-05T21:45:26.255Z,101182.94
2022-11-05T21:47:52.374Z,101174.34
2022-11-05T21:50:21.962Z,101184.13
2022-11-05T21:53:06.751Z,101190.13
2022-11-05T21:55:51.377Z,101181.34
2022-11-05T21:58:36.488Z,101170.00
2022-11-05T22:01:03.428Z,101170.16
2022-11-05T22:03:29.538Z,101165.09
2022-11-05T22:05:57.214Z,101172.19
2022-11-05T22:08:23.325Z,101175.81
2022-11-05T22:10:49.482Z,101169.75
2022-11-05T22:13:15.599Z,101176.91
2022-11-05T22:15:41.717Z,101176.16
2022-11-05T22:18:07.852Z,101180.66
2022-11-05T22:20:33.972Z,101184.31
2022-11-05T22:23:00.094Z,101183.53
2022-11-05T22:25:26.220Z,101188.13
2022-11-05T22:27:52.320Z,101182.06
2022-11-05T22:30:18.431Z,101185.81
2022-11-05T22:32:46.212Z,101179.84
2022-11-05T22:35:12.415Z,101179.97
2022-11-05T22:37:38.714Z,101180.03
2022-11-05T22:40:05.257Z,101169.56
2022-11-05T22:42:31.502Z,101170.50
2022-11-05T22:44:59.001Z,101170.59
2022-11-05T22:47:25.132Z,101172.38
2022-11-05T22:49:51.251Z,101174.31
2022-11-05T22:52:17.351Z,101171.75
2022-11-05T22:54:43.493Z,101186.91
2022-11-05T22:57:09.593Z,101185.03
2022-11-05T22:59:35.722Z,101188.69
2022-11-05T23:02:06.583Z,101179.25
2022-11-05T23:04:35.488Z,101171.47
2022-11-05T23:07:24.620Z,101174.13
2022-11-05T23:10:12.227Z,101175.16
2022-11-05T23:12:38.474Z,101168.91
2022-11-05T23:15:07.569Z,101168.84
2022-11-05T23:17:52.559Z,101168.78
2022-11-05T23:20:41.949Z,101180.84
2022-11-05T23:23:30.944Z,101164.94
2022-11-05T23:25:58.345Z,101161.22
2022-11-05T23:28:24.759Z,101171.75
2022-11-05T23:31:09.584Z,101170.16
2022-11-05T23:33:36.107Z,101164.19
2022-11-05T23:36:21.293Z,101158.22
2022-11-05T23:38:47.504Z,101168.84
2022-11-05T23:41:32.297Z,101164.50
2022-11-05T23:44:16.968Z,101167.16
2022-11-05T23:47:01.859Z,101181.19
2022-11-05T23:49:28.022Z,101183.84
2022-11-05T23:51:54.147Z,101176.59
2022-11-05T23:54:20.373Z,101173.03
2022-11-05T23:56:46.476Z,101176.00
2022-11-05T23:59:12.614Z,101171.81
